Lacey Spring, Virginia
Current Conditions -  °F | °C
As of 4:15 PM on Sunday 23 Nov 2014 (Local Time) from K8W2 Reporting Station
Scattered Clouds Scattered Clouds  
Wind Chill: 58°   Ceiling: Unl
Heat Index: 58°   Visibility: 10mi
Dew Point: 46°   Wind: 9mph
Humidity: 64%   Direction: 200°SSW
Pressure: 30.01"   Gusts: 17mph
Location:  38.54°N, 78.77°W
Report Text: K8W2 232115Z AUTO 20008G15KT 10SM SCT041 14/08 A3001 RMK AO1 T01420075
Loading
Personal Weather Stations






























Interactive Weather Map New forecast layout! Learn more

10-Day Weather Forecast

Advertisements
Track Severe Weather on mobile